Time;durP1;ratioP1;P1;durP2;ratioP2;P2;SDS_P1;SDS_P2;PMS_P1;PMS_P2;Temp;Humidity;BMP_temperature;BMP_pressure;BME280_temperature;BME280_humidity;BME280_pressure;Samples;Min_cycle;Max_cycle;Signal;HPM_P1;HPM_P2
2022/10/22 00:02:21;;;;;;;8.63;7.73;;;;;;;;;;5071765;28;20771;-45
2022/10/22 00:04:47;;;;;;;9.27;7.27;;;;;;;;;;5071534;28;20201;-45
2022/10/22 00:07:13;;;;;;;11.50;7.97;;;;;;;;;;5071910;28;20202;-45
2022/10/22 00:09:40;;;;;;;10.60;7.30;;;;;;;;;;5071392;28;20203;-45
2022/10/22 00:12:06;;;;;;;13.17;7.93;;;;;;;;;;5071484;28;20282;-45
2022/10/22 00:14:32;;;;;;;10.57;7.93;;;;;;;;;;5071590;28;20298;-45
2022/10/22 00:16:59;;;;;;;12.03;8.87;;;;;;;;;;5071148;28;20606;-45
2022/10/22 00:19:25;;;;;;;9.67;7.90;;;;;;;;;;5071131;28;20204;-45
2022/10/22 00:21:51;;;;;;;10.47;7.07;;;;;;;;;;5071225;28;20277;-45
2022/10/22 00:24:17;;;;;;;6.77;6.17;;;;;;;;;;5071338;28;20234;-45
2022/10/22 00:26:44;;;;;;;8.37;7.40;;;;;;;;;;5071504;28;20203;-45
2022/10/22 00:29:10;;;;;;;7.27;6.63;;;;;;;;;;5071686;28;20734;-45
2022/10/22 00:31:36;;;;;;;7.73;6.20;;;;;;;;;;5071720;28;20239;-45
2022/10/22 00:34:03;;;;;;;6.80;6.13;;;;;;;;;;5071284;28;20231;-45
2022/10/22 00:36:29;;;;;;;5.80;5.30;;;;;;;;;;5071348;28;20241;-45
2022/10/22 00:38:55;;;;;;;9.83;6.73;;;;;;;;;;5070958;28;20200;-45
2022/10/22 00:41:21;;;;;;;6.67;6.00;;;;;;;;;;5071291;28;20192;-45
2022/10/22 00:43:54;;;;;;;7.93;6.57;;;;;;;;;;5071156;28;20206;-45
2022/10/22 00:46:20;;;;;;;8.70;6.70;;;;;;;;;;5071331;28;20273;-45
2022/10/22 00:48:46;;;;;;;11.63;7.13;;;;;;;;;;5071225;28;20214;-45
2022/10/22 00:51:14;;;;;;;8.30;7.50;;;;;;;;;;5070556;28;20293;-45
2022/10/22 00:53:42;;;;;;;10.73;8.23;;;;;;;;;;5071419;28;20727;-45
2022/10/22 00:56:09;;;;;;;8.53;7.60;;;;;;;;;;5070653;28;20681;-45
2022/10/22 00:58:36;;;;;;;7.37;6.67;;;;;;;;;;5071299;28;20195;-45
2022/10/22 01:01:02;;;;;;;7.37;6.60;;;;;;;;;;5070465;28;20248;-45
2022/10/22 01:03:28;;;;;;;6.37;5.77;;;;;;;;;;5070438;28;20235;-45
2022/10/22 01:05:56;;;;;;;6.87;6.00;;;;;;;;;;5071170;28;20183;-45
2022/10/22 01:08:25;;;;;;;6.70;6.10;;;;;;;;;;5070795;28;20251;-45
2022/10/22 01:10:55;;;;;;;7.50;5.43;;;;;;;;;;5071059;28;20217;-45
2022/10/22 01:13:27;;;;;;;9.47;5.67;;;;;;;;;;5071079;28;20196;-45
2022/10/22 01:15:56;;;;;;;6.57;5.40;;;;;;;;;;5070948;28;20191;-45
2022/10/22 01:18:24;;;;;;;7.33;6.50;;;;;;;;;;5070962;28;20208;-45
2022/10/22 01:20:56;;;;;;;8.90;6.80;;;;;;;;;;5070888;28;20677;-45
2022/10/22 01:23:33;;;;;;;10.77;7.47;;;;;;;;;;5070512;28;20733;-45
2022/10/22 01:26:03;;;;;;;10.37;7.43;;;;;;;;;;5070816;28;20203;-45
2022/10/22 01:28:48;;;;;;;10.17;7.80;;;;;;;;;;5071004;28;20275;-45
2022/10/22 01:31:15;;;;;;;9.20;8.13;;;;;;;;;;5070896;28;20323;-45
2022/10/22 01:33:41;;;;;;;9.60;8.60;;;;;;;;;;5071195;28;20200;-45
2022/10/22 01:36:08;;;;;;;11.57;9.17;;;;;;;;;;5070907;28;20195;-45
2022/10/22 01:38:34;;;;;;;9.83;8.57;;;;;;;;;;5073364;28;20191;-45
2022/10/22 01:41:00;;;;;;;9.27;8.37;;;;;;;;;;5074361;28;20672;-45
2022/10/22 01:43:26;;;;;;;8.80;8.00;;;;;;;;;;5074287;28;20633;-45
2022/10/22 01:45:55;;;;;;;7.57;6.87;;;;;;;;;;5074318;28;20233;-45
2022/10/22 01:48:26;;;;;;;8.83;7.60;;;;;;;;;;5074399;28;20207;-45
2022/10/22 01:51:10;;;;;;;10.00;8.63;;;;;;;;;;5074141;28;20239;-45
2022/10/22 01:53:40;;;;;;;8.67;7.80;;;;;;;;;;5073843;28;20195;-45
2022/10/22 01:56:12;;;;;;;12.00;8.40;;;;;;;;;;5073997;28;20196;-45
2022/10/22 01:58:42;;;;;;;9.63;8.27;;;;;;;;;;5073154;28;20547;-45
2022/10/22 02:01:14;;;;;;;10.03;8.40;;;;;;;;;;5073712;28;20200;-45
2022/10/22 02:03:41;;;;;;;9.30;7.77;;;;;;;;;;5074153;28;20200;-45
2022/10/22 02:06:10;;;;;;;9.47;8.33;;;;;;;;;;5073912;28;20281;-45
2022/10/22 02:08:36;;;;;;;10.20;7.83;;;;;;;;;;5074025;28;20223;-44
2022/10/22 02:11:03;;;;;;;8.30;7.00;;;;;;;;;;5073611;28;20283;-44
2022/10/22 02:13:32;;;;;;;9.00;7.10;;;;;;;;;;5074287;28;20230;-45
2022/10/22 02:15:58;;;;;;;9.70;7.50;;;;;;;;;;5073784;28;20343;-44
2022/10/22 02:18:29;;;;;;;7.90;7.13;;;;;;;;;;5073873;28;20680;-45
2022/10/22 02:20:55;;;;;;;6.30;5.70;;;;;;;;;;5073820;28;20683;-45
2022/10/22 02:23:21;;;;;;;13.10;7.97;;;;;;;;;;5073787;28;20228;-45
2022/10/22 02:25:49;;;;;;;9.13;8.23;;;;;;;;;;5073590;28;20549;-45
2022/10/22 02:28:19;;;;;;;8.00;7.23;;;;;;;;;;5073757;28;20272;-45
2022/10/22 02:30:48;;;;;;;10.47;7.93;;;;;;;;;;5073564;28;20286;-45
2022/10/22 02:33:16;;;;;;;9.67;8.67;;;;;;;;;;5073371;28;20200;-45
2022/10/22 02:35:44;;;;;;;10.20;9.03;;;;;;;;;;5073314;28;20203;-44
2022/10/22 02:38:11;;;;;;;8.77;7.97;;;;;;;;;;5073279;28;20294;-51
2022/10/22 02:40:37;;;;;;;13.37;8.57;;;;;;;;;;5073646;28;20199;-44
2022/10/22 02:43:04;;;;;;;12.53;9.07;;;;;;;;;;5073238;28;20227;-44
2022/10/22 02:45:30;;;;;;;10.73;8.57;;;;;;;;;;5073318;28;20249;-45
2022/10/22 02:47:56;;;;;;;13.30;9.33;;;;;;;;;;5073194;28;20200;-44
2022/10/22 02:50:22;;;;;;;12.40;8.93;;;;;;;;;;5071960;28;20323;-45
2022/10/22 02:52:49;;;;;;;10.20;9.20;;;;;;;;;;5072860;28;20557;-44
2022/10/22 02:55:15;;;;;;;8.90;8.00;;;;;;;;;;5072956;28;20207;-45
2022/10/22 02:57:41;;;;;;;9.83;8.90;;;;;;;;;;5073175;28;20203;-44
2022/10/22 03:00:09;;;;;;;8.83;7.83;;;;;;;;;;5072874;28;20192;-45
2022/10/22 03:02:35;;;;;;;8.57;7.77;;;;;;;;;;5072667;28;20225;-45
2022/10/22 03:05:01;;;;;;;14.97;9.43;;;;;;;;;;5072925;28;20288;-45
2022/10/22 03:07:27;;;;;;;10.53;9.30;;;;;;;;;;5072933;28;20279;-45
2022/10/22 03:09:54;;;;;;;10.47;9.37;;;;;;;;;;5072555;28;20275;-45
2022/10/22 03:12:20;;;;;;;14.07;9.03;;;;;;;;;;5072944;28;20199;-45
2022/10/22 03:14:46;;;;;;;10.37;8.50;;;;;;;;;;5072847;28;20192;-44
2022/10/22 03:17:12;;;;;;;10.90;8.57;;;;;;;;;;5072653;28;20202;-44
2022/10/22 03:19:38;;;;;;;11.20;9.27;;;;;;;;;;5072769;28;20226;-44
2022/10/22 03:22:06;;;;;;;10.50;9.10;;;;;;;;;;5072282;28;20219;-45
2022/10/22 03:24:35;;;;;;;9.33;8.17;;;;;;;;;;5072622;28;20207;-44
2022/10/22 03:27:02;;;;;;;9.40;7.60;;;;;;;;;;5071791;28;20199;-44
2022/10/22 03:29:28;;;;;;;9.70;8.57;;;;;;;;;;5072424;28;20234;-45
2022/10/22 03:31:54;;;;;;;12.67;8.57;;;;;;;;;;5072101;28;20196;-45
2022/10/22 03:34:21;;;;;;;11.80;8.33;;;;;;;;;;5072084;28;20195;-49
2022/10/22 03:36:47;;;;;;;11.00;8.97;;;;;;;;;;5072405;28;20275;-44
2022/10/22 03:39:14;;;;;;;11.17;9.00;;;;;;;;;;5071320;28;20204;-44
2022/10/22 03:41:41;;;;;;;10.20;8.73;;;;;;;;;;5072072;28;20312;-44
2022/10/22 03:44:08;;;;;;;9.20;8.30;;;;;;;;;;5072202;28;20856;-44
2022/10/22 03:46:34;;;;;;;9.60;8.30;;;;;;;;;;5072033;28;20619;-45
2022/10/22 03:49:00;;;;;;;9.10;8.20;;;;;;;;;;5071996;28;20200;-45
2022/10/22 03:51:27;;;;;;;8.80;8.00;;;;;;;;;;5072003;28;20739;-44
2022/10/22 03:53:53;;;;;;;10.30;9.20;;;;;;;;;;5071178;28;20496;-44
2022/10/22 03:56:19;;;;;;;10.77;9.67;;;;;;;;;;5069745;28;20206;-45
2022/10/22 03:58:45;;;;;;;13.10;9.43;;;;;;;;;;5071473;28;20551;-44
2022/10/22 04:01:12;;;;;;;11.87;9.50;;;;;;;;;;5071275;28;20666;-44
2022/10/22 04:03:39;;;;;;;12.47;9.93;;;;;;;;;;5071822;28;20281;-44
2022/10/22 04:06:07;;;;;;;11.50;8.97;;;;;;;;;;5071726;28;20257;-44
2022/10/22 04:08:33;;;;;;;11.90;9.67;;;;;;;;;;5071495;28;20239;-44
2022/10/22 04:10:59;;;;;;;10.20;9.17;;;;;;;;;;5071576;28;20222;-44
2022/10/22 04:13:25;;;;;;;12.23;10.10;;;;;;;;;;5070779;28;20199;-45
2022/10/22 04:15:51;;;;;;;9.17;8.27;;;;;;;;;;5071747;28;20203;-44
2022/10/22 04:18:19;;;;;;;12.20;10.03;;;;;;;;;;5071599;28;20204;-44
2022/10/22 04:20:45;;;;;;;8.03;7.33;;;;;;;;;;5071677;28;20925;-44
2022/10/22 04:23:11;;;;;;;10.83;7.33;;;;;;;;;;5071384;28;20867;-44
2022/10/22 04:25:37;;;;;;;6.83;6.17;;;;;;;;;;5071722;28;20641;-45
2022/10/22 04:28:05;;;;;;;7.53;6.73;;;;;;;;;;5071495;28;20688;-44
2022/10/22 04:30:31;;;;;;;7.83;7.13;;;;;;;;;;5071638;28;20203;-45
2022/10/22 04:32:57;;;;;;;6.87;6.27;;;;;;;;;;5071359;28;20237;-44
2022/10/22 04:35:25;;;;;;;11.13;7.10;;;;;;;;;;5070546;28;20200;-44
2022/10/22 04:37:51;;;;;;;7.13;6.50;;;;;;;;;;5071439;28;20223;-45
2022/10/22 04:40:17;;;;;;;8.33;6.53;;;;;;;;;;5071290;28;20202;-45
2022/10/22 04:42:43;;;;;;;8.27;6.87;;;;;;;;;;5071575;28;20231;-44
2022/10/22 04:45:09;;;;;;;8.30;6.70;;;;;;;;;;5071464;28;20199;-44
2022/10/22 04:47:35;;;;;;;6.90;6.30;;;;;;;;;;5071606;28;20191;-44
2022/10/22 04:50:01;;;;;;;9.43;7.40;;;;;;;;;;5071139;28;20239;-45
2022/10/22 04:52:30;;;;;;;9.20;7.97;;;;;;;;;;5071295;28;20245;-44
2022/10/22 04:54:56;;;;;;;7.13;6.40;;;;;;;;;;5071300;28;20207;-44
2022/10/22 04:57:22;;;;;;;7.10;5.93;;;;;;;;;;5071214;28;20269;-44
2022/10/22 04:59:48;;;;;;;7.37;6.67;;;;;;;;;;5071430;28;20199;-44
2022/10/22 05:02:14;;;;;;;6.50;5.90;;;;;;;;;;5071089;28;20588;-45
2022/10/22 05:04:40;;;;;;;7.27;6.57;;;;;;;;;;5071508;28;20618;-45
2022/10/22 05:07:06;;;;;;;6.63;5.87;;;;;;;;;;5070922;28;20697;-45
2022/10/22 05:09:33;;;;;;;6.27;5.67;;;;;;;;;;5070930;28;20247;-44
2022/10/22 05:11:59;;;;;;;6.17;4.83;;;;;;;;;;5071291;28;20204;-44
2022/10/22 05:14:26;;;;;;;5.30;4.80;;;;;;;;;;5075255;28;20238;-44
2022/10/22 05:16:52;;;;;;;6.53;5.93;;;;;;;;;;5075065;28;20191;-44
2022/10/22 05:19:19;;;;;;;5.60;5.10;;;;;;;;;;5075093;28;20293;-45
2022/10/22 05:21:46;;;;;;;5.27;4.77;;;;;;;;;;5074931;28;20196;-44
2022/10/22 05:24:12;;;;;;;7.70;5.73;;;;;;;;;;5074570;28;20261;-44
2022/10/22 05:26:40;;;;;;;9.27;7.10;;;;;;;;;;5073990;28;20195;-44
2022/10/22 05:29:06;;;;;;;7.47;5.97;;;;;;;;;;5074653;28;20288;-44
2022/10/22 05:31:32;;;;;;;6.60;5.47;;;;;;;;;;5074820;28;20253;-44
2022/10/22 05:33:58;;;;;;;6.67;4.77;;;;;;;;;;5074741;28;20192;-44
2022/10/22 05:36:24;;;;;;;6.27;4.80;;;;;;;;;;5074710;28;20196;-44
2022/10/22 05:38:50;;;;;;;5.30;4.80;;;;;;;;;;5074388;28;20234;-44
2022/10/22 05:41:17;;;;;;;4.77;4.30;;;;;;;;;;5074286;28;20253;-44
2022/10/22 05:43:44;;;;;;;4.57;4.17;;;;;;;;;;5074646;28;20227;-44
2022/10/22 05:46:12;;;;;;;5.90;4.13;;;;;;;;;;5074441;28;20299;-45
2022/10/22 05:48:38;;;;;;;5.50;5.00;;;;;;;;;;5074420;28;20196;-45
2022/10/22 05:51:05;;;;;;;4.87;4.47;;;;;;;;;;5073999;28;20717;-45
2022/10/22 05:53:31;;;;;;;6.50;5.90;;;;;;;;;;5074345;28;20291;-45
2022/10/22 05:55:59;;;;;;;10.53;8.90;;;;;;;;;;5073949;28;20249;-45
2022/10/22 05:58:25;;;;;;;10.53;9.03;;;;;;;;;;5074236;28;20293;-45
2022/10/22 06:00:52;;;;;;;6.37;5.77;;;;;;;;;;5074237;28;20669;-44
2022/10/22 06:03:18;;;;;;;6.83;5.93;;;;;;;;;;5074085;28;20721;-44
2022/10/22 06:05:44;;;;;;;6.67;5.97;;;;;;;;;;5074186;28;20269;-44
2022/10/22 06:08:11;;;;;;;6.80;6.20;;;;;;;;;;5073927;28;20207;-45
2022/10/22 06:10:39;;;;;;;7.03;6.43;;;;;;;;;;5073650;28;20202;-44
2022/10/22 06:13:06;;;;;;;11.33;8.53;;;;;;;;;;5072382;28;20230;-44
2022/10/22 06:15:33;;;;;;;11.07;9.87;;;;;;;;;;5073063;28;20202;-44
2022/10/22 06:18:00;;;;;;;10.93;9.83;;;;;;;;;;5074074;28;20282;-45
2022/10/22 06:20:26;;;;;;;10.37;8.63;;;;;;;;;;5073926;28;20230;-44
2022/10/22 06:22:52;;;;;;;11.63;10.27;;;;;;;;;;5072156;28;20656;-44
2022/10/22 06:25:18;;;;;;;9.60;8.63;;;;;;;;;;5073060;28;20196;-44
2022/10/22 06:27:49;;;;;;;11.33;8.53;;;;;;;;;;5073538;28;20199;-45
2022/10/22 06:30:15;;;;;;;8.07;7.27;;;;;;;;;;5072833;28;20814;-44
2022/10/22 06:32:41;;;;;;;10.30;6.97;;;;;;;;;;5073715;28;20568;-44
2022/10/22 06:35:08;;;;;;;7.27;6.57;;;;;;;;;;5073407;28;20658;-44
2022/10/22 06:37:34;;;;;;;7.07;6.20;;;;;;;;;;5073347;28;20673;-44
2022/10/22 06:40:00;;;;;;;10.23;6.70;;;;;;;;;;5073135;28;20268;-45
2022/10/22 06:42:27;;;;;;;9.90;6.30;;;;;;;;;;5072569;28;20219;-44
2022/10/22 06:44:53;;;;;;;9.00;6.87;;;;;;;;;;5071874;28;20571;-44
2022/10/22 06:47:19;;;;;;;8.23;5.97;;;;;;;;;;5072992;28;20195;-44
2022/10/22 06:49:45;;;;;;;6.93;6.33;;;;;;;;;;5072226;28;20290;-45
2022/10/22 06:52:12;;;;;;;8.30;7.37;;;;;;;;;;5071991;28;20199;-44
2022/10/22 06:54:38;;;;;;;12.50;10.43;;;;;;;;;;5073029;28;20204;-44
2022/10/22 06:57:04;;;;;;;8.40;7.50;;;;;;;;;;5072951;28;20522;-44
2022/10/22 06:59:30;;;;;;;9.97;8.97;;;;;;;;;;5073183;28;20666;-44
2022/10/22 07:01:56;;;;;;;14.97;12.57;;;;;;;;;;5073046;28;20199;-44
2022/10/22 07:04:22;;;;;;;35.63;30.43;;;;;;;;;;5072684;28;20204;-44
2022/10/22 07:06:48;;;;;;;32.40;27.63;;;;;;;;;;5072155;28;20210;-44
2022/10/22 07:09:16;;;;;;;15.37;12.17;;;;;;;;;;5072422;28;20250;-46
2022/10/22 07:11:43;;;;;;;12.17;11.00;;;;;;;;;;5073009;28;20223;-44
2022/10/22 07:14:09;;;;;;;13.70;10.77;;;;;;;;;;5072434;28;20720;-44
2022/10/22 07:16:36;;;;;;;13.13;9.40;;;;;;;;;;5072602;28;20257;-44
2022/10/22 07:19:03;;;;;;;9.23;8.00;;;;;;;;;;5072604;28;20580;-44
2022/10/22 07:21:30;;;;;;;12.67;7.20;;;;;;;;;;5072665;28;20202;-44
2022/10/22 07:23:56;;;;;;;11.60;8.20;;;;;;;;;;5072006;28;20227;-45
2022/10/22 07:26:27;;;;;;;11.27;7.70;;;;;;;;;;5072422;28;20234;-44
2022/10/22 07:28:53;;;;;;;10.17;6.93;;;;;;;;;;5072701;28;20203;-44
2022/10/22 07:31:19;;;;;;;8.57;7.13;;;;;;;;;;5071955;28;20836;-44
2022/10/22 07:33:45;;;;;;;9.03;6.23;;;;;;;;;;5072189;28;20196;-45
2022/10/22 07:36:16;;;;;;;7.07;5.97;;;;;;;;;;5071738;28;20274;-44
2022/10/22 07:38:42;;;;;;;5.97;5.37;;;;;;;;;;5072120;28;20207;-44
2022/10/22 07:41:09;;;;;;;7.60;5.97;;;;;;;;;;5072086;28;20229;-44
2022/10/22 07:43:36;;;;;;;8.37;5.53;;;;;;;;;;5072159;28;20292;-45
2022/10/22 07:46:02;;;;;;;8.43;4.90;;;;;;;;;;5072149;28;20250;-44
2022/10/22 07:48:28;;;;;;;5.80;4.90;;;;;;;;;;5072059;28;20292;-45
2022/10/22 07:50:57;;;;;;;5.33;4.80;;;;;;;;;;5071816;28;20239;-44
2022/10/22 07:53:23;;;;;;;8.80;4.87;;;;;;;;;;5071812;28;20211;-45
2022/10/22 07:55:49;;;;;;;4.50;4.10;;;;;;;;;;5071988;28;20241;-44
2022/10/22 07:58:18;;;;;;;6.73;4.03;;;;;;;;;;5071972;28;20196;-45
2022/10/22 08:00:46;;;;;;;6.00;3.90;;;;;;;;;;5072164;28;20195;-45
2022/10/22 08:03:12;;;;;;;4.00;3.23;;;;;;;;;;5071418;28;20767;-45
2022/10/22 08:05:38;;;;;;;4.27;2.93;;;;;;;;;;5071419;28;20533;-45
2022/10/22 08:08:04;;;;;;;5.90;3.13;;;;;;;;;;5071284;28;20697;-45
2022/10/22 08:10:31;;;;;;;4.03;3.00;;;;;;;;;;5071557;28;20653;-45
2022/10/22 08:12:57;;;;;;;4.50;2.67;;;;;;;;;;5071124;28;20278;-45
2022/10/22 08:15:25;;;;;;;5.17;3.13;;;;;;;;;;5071525;28;20204;-45
2022/10/22 08:17:52;;;;;;;4.00;2.30;;;;;;;;;;5071462;28;20202;-45
2022/10/22 08:20:19;;;;;;;3.17;2.30;;;;;;;;;;5071471;28;20214;-45
2022/10/22 08:22:45;;;;;;;4.53;2.30;;;;;;;;;;5071533;28;20314;-45
2022/10/22 08:25:11;;;;;;;5.07;2.40;;;;;;;;;;5071298;28;20209;-45
2022/10/22 08:27:37;;;;;;;4.40;2.00;;;;;;;;;;5071503;28;20195;-45
2022/10/22 08:30:04;;;;;;;2.53;2.10;;;;;;;;;;5071426;28;20204;-45
2022/10/22 08:32:30;;;;;;;3.50;2.00;;;;;;;;;;5071159;28;20194;-45
2022/10/22 08:34:57;;;;;;;3.40;1.97;;;;;;;;;;5071554;28;20258;-45
2022/10/22 08:37:24;;;;;;;4.87;2.10;;;;;;;;;;5070988;28;20231;-45
2022/10/22 08:39:50;;;;;;;6.13;2.00;;;;;;;;;;5071478;28;20232;-45
2022/10/22 08:42:30;;;;;;;6.20;2.03;;;;;;;;;;5070998;28;20313;-52
2022/10/22 08:45:03;;;;;;;2.87;1.73;;;;;;;;;;5071101;28;20199;-44
2022/10/22 08:47:36;;;;;;;6.53;1.90;;;;;;;;;;5072293;28;20649;-45
2022/10/22 08:50:04;;;;;;;2.97;2.00;;;;;;;;;;5074617;28;20239;-45
2022/10/22 08:52:31;;;;;;;2.27;1.63;;;;;;;;;;5075001;28;20214;-46
2022/10/22 08:54:58;;;;;;;2.50;1.83;;;;;;;;;;5074535;28;20689;-45
2022/10/22 08:57:35;;;;;;;4.30;1.90;;;;;;;;;;5075016;28;20735;-45
2022/10/22 09:00:04;;;;;;;4.43;2.27;;;;;;;;;;5075082;28;20599;-45
2022/10/22 09:02:34;;;;;;;6.63;2.07;;;;;;;;;;5074850;28;20227;-49
2022/10/22 09:05:04;;;;;;;2.47;1.77;;;;;;;;;;5075350;28;20199;-49
2022/10/22 09:07:31;;;;;;;9.17;2.20;;;;;;;;;;5074962;28;20242;-49
2022/10/22 09:09:59;;;;;;;2.90;1.80;;;;;;;;;;5074304;28;20211;-50
2022/10/22 09:12:26;;;;;;;5.27;2.27;;;;;;;;;;5074648;28;20202;-49
2022/10/22 09:14:52;;;;;;;5.40;1.80;;;;;;;;;;5074946;28;20198;-46
2022/10/22 09:17:20;;;;;;;4.90;2.27;;;;;;;;;;5074982;28;20195;-46
2022/10/22 09:19:54;;;;;;;2.57;1.70;;;;;;;;;;5075019;28;20559;-46
2022/10/22 09:22:26;;;;;;;4.93;2.13;;;;;;;;;;5074491;28;20220;-46
2022/10/22 09:24:57;;;;;;;3.93;2.00;;;;;;;;;;5074687;28;20195;-46
2022/10/22 09:27:27;;;;;;;5.10;2.10;;;;;;;;;;5074235;28;20208;-47
2022/10/22 09:29:53;;;;;;;4.67;2.00;;;;;;;;;;5074705;28;20200;-46
2022/10/22 09:32:19;;;;;;;4.60;2.00;;;;;;;;;;5073273;28;20196;-45
2022/10/22 09:34:46;;;;;;;4.27;2.53;;;;;;;;;;5074278;28;20191;-45
2022/10/22 09:37:15;;;;;;;7.93;2.60;;;;;;;;;;5074391;28;20200;-46
2022/10/22 09:39:44;;;;;;;13.90;10.80;;;;;;;;;;5073184;28;20208;-46
2022/10/22 09:42:13;;;;;;;20.63;16.03;;;;;;;;;;5074630;28;20365;-46
2022/10/22 09:44:39;;;;;;;6.73;3.60;;;;;;;;;;5074771;28;20209;-46
2022/10/22 09:47:06;;;;;;;6.77;2.17;;;;;;;;;;5074482;28;20205;-46
2022/10/22 09:49:33;;;;;;;3.70;2.10;;;;;;;;;;5074663;28;20301;-46
2022/10/22 09:52:00;;;;;;;7.63;2.40;;;;;;;;;;5074644;28;20209;-45
2022/10/22 09:54:37;;;;;;;6.37;3.70;;;;;;;;;;5074459;28;20665;-46
2022/10/22 09:57:04;;;;;;;2.57;2.00;;;;;;;;;;5074597;28;20201;-46
2022/10/22 09:59:32;;;;;;;6.07;2.10;;;;;;;;;;5074051;28;20237;-46
2022/10/22 10:02:00;;;;;;;7.73;4.30;;;;;;;;;;5074340;28;20213;-46
2022/10/22 10:04:26;;;;;;;9.30;2.40;;;;;;;;;;5074169;28;20222;-46
2022/10/22 10:06:53;;;;;;;6.50;2.80;;;;;;;;;;5074388;28;20230;-46
2022/10/22 10:09:20;;;;;;;8.83;2.90;;;;;;;;;;5074102;28;20602;-45
2022/10/22 10:11:49;;;;;;;3.63;2.30;;;;;;;;;;5074249;28;20269;-46
2022/10/22 10:14:17;;;;;;;4.70;2.30;;;;;;;;;;5074094;28;20196;-46
2022/10/22 10:16:54;;;;;;;4.33;2.20;;;;;;;;;;5074255;28;20201;-45
2022/10/22 10:19:32;;;;;;;4.27;2.37;;;;;;;;;;5074040;28;20704;-46
2022/10/22 10:22:03;;;;;;;5.93;2.47;;;;;;;;;;5074033;28;20199;-46
2022/10/22 10:24:38;;;;;;;4.27;2.40;;;;;;;;;;5073953;28;20290;-47
2022/10/22 10:27:09;;;;;;;6.20;2.60;;;;;;;;;;5072082;28;20682;-46
2022/10/22 10:29:44;;;;;;;4.57;2.10;;;;;;;;;;5071479;28;20214;-46
2022/10/22 10:32:18;;;;;;;7.47;2.47;;;;;;;;;;5073244;28;20192;-46
2022/10/22 10:34:47;;;;;;;5.63;2.43;;;;;;;;;;5073988;28;20297;-46
2022/10/22 10:37:17;;;;;;;5.80;2.43;;;;;;;;;;5073188;28;20292;-46
2022/10/22 10:39:51;;;;;;;5.23;2.70;;;;;;;;;;5073939;28;20555;-46
2022/10/22 10:42:21;;;;;;;5.07;2.73;;;;;;;;;;5073665;28;20223;-46
2022/10/22 10:44:50;;;;;;;7.43;2.93;;;;;;;;;;5073782;28;20299;-46
2022/10/22 10:47:25;;;;;;;3.80;2.07;;;;;;;;;;5073512;28;20238;-47
2022/10/22 10:49:53;;;;;;;4.80;2.30;;;;;;;;;;5070983;28;20206;-46
2022/10/22 10:52:21;;;;;;;4.57;2.37;;;;;;;;;;5072805;28;20278;-46
2022/10/22 10:54:54;;;;;;;5.30;2.67;;;;;;;;;;5072078;28;20226;-46
2022/10/22 10:57:25;;;;;;;3.57;2.23;;;;;;;;;;5072870;28;20203;-46
2022/10/22 10:59:58;;;;;;;5.03;2.90;;;;;;;;;;5072948;28;20218;-46
2022/10/22 11:02:33;;;;;;;5.13;2.70;;;;;;;;;;5072879;28;20227;-45
2022/10/22 11:05:20;;;;;;;8.27;2.43;;;;;;;;;;5072581;28;20207;-47
2022/10/22 11:07:47;;;;;;;4.13;2.50;;;;;;;;;;5072203;28;20216;-46
2022/10/22 11:10:27;;;;;;;4.97;2.23;;;;;;;;;;5071829;28;20197;-47
2022/10/22 11:12:57;;;;;;;4.67;2.40;;;;;;;;;;5072624;28;20749;-47
2022/10/22 11:15:27;;;;;;;6.63;2.83;;;;;;;;;;5072457;28;20208;-47
2022/10/22 11:17:56;;;;;;;5.20;2.37;;;;;;;;;;5072636;28;20661;-46
2022/10/22 11:20:24;;;;;;;5.73;2.63;;;;;;;;;;5072065;28;20203;-47
2022/10/22 11:22:53;;;;;;;7.03;3.10;;;;;;;;;;5072510;28;20227;-46
2022/10/22 11:25:22;;;;;;;5.57;2.50;;;;;;;;;;5072454;28;20199;-47
2022/10/22 11:27:48;;;;;;;7.43;2.70;;;;;;;;;;5072458;28;20196;-47
2022/10/22 11:30:17;;;;;;;5.77;2.20;;;;;;;;;;5072213;28;20233;-47
2022/10/22 11:32:44;;;;;;;7.63;2.60;;;;;;;;;;5072235;28;20643;-47
2022/10/22 11:35:15;;;;;;;8.10;2.63;;;;;;;;;;5072225;28;20198;-46
2022/10/22 11:37:42;;;;;;;6.10;2.40;;;;;;;;;;5072129;28;20727;-47
2022/10/22 11:40:14;;;;;;;6.10;2.20;;;;;;;;;;5072162;28;20709;-45
2022/10/22 11:42:43;;;;;;;5.27;2.33;;;;;;;;;;5072055;28;20246;-45
2022/10/22 11:45:24;;;;;;;6.43;2.50;;;;;;;;;;5072095;28;20199;-45
2022/10/22 11:47:56;;;;;;;7.37;2.80;;;;;;;;;;5072170;28;20282;-46
2022/10/22 11:50:24;;;;;;;6.10;2.23;;;;;;;;;;5072037;28;20250;-45
2022/10/22 11:52:59;;;;;;;6.30;2.60;;;;;;;;;;5071892;28;20222;-46
2022/10/22 11:55:46;;;;;;;5.63;2.20;;;;;;;;;;5071741;28;20206;-45
2022/10/22 11:58:43;;;;;;;7.83;2.20;;;;;;;;;;5071711;28;20200;-47
2022/10/22 12:01:21;;;;;;;5.60;2.43;;;;;;;;;;5009780;28;20205;-46
2022/10/22 12:03:48;;;;;;;7.20;2.30;;;;;;;;;;5062363;28;20227;-46
2022/10/22 12:06:19;;;;;;;7.90;2.70;;;;;;;;;;5071700;28;20204;-46
2022/10/22 12:08:46;;;;;;;6.17;2.50;;;;;;;;;;5070236;28;20227;-46
2022/10/22 12:11:19;;;;;;;5.57;2.20;;;;;;;;;;5071924;28;20199;-46
2022/10/22 12:14:16;;;;;;;6.03;2.47;;;;;;;;;;5069543;28;20195;-46
2022/10/22 12:16:44;;;;;;;5.43;2.43;;;;;;;;;;5008474;28;20209;-46
2022/10/22 12:19:13;;;;;;;6.87;2.67;;;;;;;;;;5057680;28;20215;-47
2022/10/22 12:21:42;;;;;;;5.77;2.40;;;;;;;;;;5071003;28;20195;-46
2022/10/22 12:24:11;;;;;;;5.63;2.10;;;;;;;;;;5071483;28;20701;-47
2022/10/22 12:26:37;;;;;;;3.57;2.13;;;;;;;;;;5071921;28;20282;-46
2022/10/22 12:29:09;;;;;;;5.03;2.20;;;;;;;;;;5071228;28;20215;-46
2022/10/22 12:31:35;;;;;;;5.57;2.00;;;;;;;;;;5071204;28;20210;-46
2022/10/22 12:34:01;;;;;;;4.27;2.00;;;;;;;;;;5071441;28;20248;-45
2022/10/22 12:36:28;;;;;;;4.67;1.80;;;;;;;;;;5071256;28;20529;-46
2022/10/22 12:38:59;;;;;;;5.50;2.40;;;;;;;;;;5071306;28;20199;-46
2022/10/22 12:41:29;;;;;;;8.90;2.13;;;;;;;;;;5071375;28;20191;-46
2022/10/22 12:43:58;;;;;;;5.87;1.90;;;;;;;;;;5071333;28;20229;-48
2022/10/22 12:46:24;;;;;;;3.80;2.10;;;;;;;;;;5071266;28;20199;-45
2022/10/22 12:48:50;;;;;;;6.80;2.10;;;;;;;;;;5071309;28;20195;-45
2022/10/22 12:51:18;;;;;;;3.20;2.10;;;;;;;;;;5070519;28;20239;-45
2022/10/22 12:53:46;;;;;;;4.10;1.60;;;;;;;;;;5070918;28;20191;-46
2022/10/22 12:56:15;;;;;;;4.37;1.60;;;;;;;;;;5070695;28;20245;-45
2022/10/22 12:58:42;;;;;;;3.80;1.90;;;;;;;;;;5070323;28;20203;-45
2022/10/22 13:01:10;;;;;;;3.63;1.80;;;;;;;;;;5070954;28;20191;-45
2022/10/22 13:03:40;;;;;;;2.47;1.60;;;;;;;;;;5071022;28;20307;-45
2022/10/22 13:06:12;;;;;;;3.77;1.87;;;;;;;;;;5070806;28;20211;-46
2022/10/22 13:08:39;;;;;;;3.87;1.90;;;;;;;;;;5071006;28;20268;-46
2022/10/22 13:11:06;;;;;;;3.30;1.77;;;;;;;;;;5071441;28;20202;-46
2022/10/22 13:13:44;;;;;;;4.53;2.03;;;;;;;;;;5071166;28;20985;-46
2022/10/22 13:16:21;;;;;;;4.80;2.10;;;;;;;;;;5071290;28;20200;-46
2022/10/22 13:18:48;;;;;;;5.10;1.90;;;;;;;;;;5070405;28;20199;-47
2022/10/22 13:21:25;;;;;;;5.73;1.97;;;;;;;;;;5069968;28;20231;-46
2022/10/22 13:23:52;;;;;;;3.63;1.87;;;;;;;;;;5070588;28;20274;-46
2022/10/22 13:26:18;;;;;;;6.33;1.90;;;;;;;;;;5070438;28;20206;-46
2022/10/22 13:28:51;;;;;;;4.37;1.80;;;;;;;;;;5070479;28;20192;-46
2022/10/22 13:31:18;;;;;;;3.67;1.43;;;;;;;;;;5068615;28;20602;-46
2022/10/22 13:33:45;;;;;;;5.43;1.70;;;;;;;;;;5072108;28;20192;-46
2022/10/22 13:36:12;;;;;;;3.50;1.60;;;;;;;;;;5074761;28;20199;-46
2022/10/22 13:38:38;;;;;;;2.50;1.40;;;;;;;;;;5074816;28;20206;-46
2022/10/22 13:41:04;;;;;;;2.63;1.33;;;;;;;;;;5074912;28;20201;-46
2022/10/22 13:43:30;;;;;;;3.90;1.67;;;;;;;;;;5074848;28;20234;-46
2022/10/22 13:45:59;;;;;;;4.23;1.50;;;;;;;;;;5074793;28;20205;-46
2022/10/22 13:48:26;;;;;;;4.43;1.63;;;;;;;;;;5074641;28;20264;-46
2022/10/22 13:50:52;;;;;;;6.07;1.60;;;;;;;;;;5074533;28;20255;-46
2022/10/22 13:53:20;;;;;;;4.47;1.70;;;;;;;;;;5074447;28;20719;-46
2022/10/22 13:55:46;;;;;;;2.67;1.40;;;;;;;;;;5074826;28;20199;-46
2022/10/22 13:58:13;;;;;;;6.60;1.63;;;;;;;;;;5074421;28;20219;-47
2022/10/22 14:00:41;;;;;;;4.77;1.60;;;;;;;;;;5074703;28;20232;-46
2022/10/22 14:03:10;;;;;;;4.97;1.77;;;;;;;;;;5074238;28;20221;-47
2022/10/22 14:05:36;;;;;;;4.17;1.63;;;;;;;;;;5072645;28;20211;-47
2022/10/22 14:08:02;;;;;;;3.13;1.77;;;;;;;;;;5071979;28;20222;-47
2022/10/22 14:10:29;;;;;;;4.50;1.97;;;;;;;;;;5072365;28;20546;-46
2022/10/22 14:12:55;;;;;;;6.13;2.00;;;;;;;;;;5074084;28;20196;-46
2022/10/22 14:15:22;;;;;;;4.70;2.10;;;;;;;;;;5073924;28;20645;-46
2022/10/22 14:17:49;;;;;;;7.80;2.40;;;;;;;;;;5074233;28;20612;-46
2022/10/22 14:20:19;;;;;;;3.53;1.60;;;;;;;;;;5073885;28;20225;-46
2022/10/22 14:22:46;;;;;;;6.03;1.97;;;;;;;;;;5071835;28;20227;-46
2022/10/22 14:25:13;;;;;;;6.10;2.23;;;;;;;;;;5074192;28;20279;-46
2022/10/22 14:27:39;;;;;;;5.20;2.13;;;;;;;;;;5071837;28;20207;-47
2022/10/22 14:30:06;;;;;;;9.10;3.33;;;;;;;;;;5073821;28;20198;-46
2022/10/22 14:32:32;;;;;;;8.00;2.50;;;;;;;;;;5074014;28;20202;-46
2022/10/22 14:35:00;;;;;;;5.33;2.80;;;;;;;;;;5073690;28;20195;-46
2022/10/22 14:37:27;;;;;;;4.97;2.40;;;;;;;;;;5073628;28;20206;-46
2022/10/22 14:40:00;;;;;;;5.37;2.40;;;;;;;;;;5073701;28;20209;-46
2022/10/22 14:42:26;;;;;;;5.50;2.17;;;;;;;;;;5073510;28;20211;-46
2022/10/22 14:44:52;;;;;;;5.83;2.50;;;;;;;;;;5073872;28;20237;-47
2022/10/22 14:47:18;;;;;;;7.07;2.03;;;;;;;;;;5073301;28;20200;-46